createdAt,value
2019-03-09T00:00:02.797Z,1004.48
2019-03-09T00:01:03.075Z,1004.50
2019-03-09T00:02:03.391Z,1004.59
2019-03-09T00:03:03.530Z,1004.48
2019-03-09T00:04:03.666Z,1004.50
2019-03-09T00:05:03.776Z,1004.47
2019-03-09T00:06:03.990Z,1004.45
2019-03-09T00:07:04.102Z,1004.41
2019-03-09T00:08:04.147Z,1004.47
2019-03-09T00:09:04.269Z,1004.45
2019-03-09T00:10:04.543Z,1004.50
2019-03-09T00:11:04.650Z,1004.47
2019-03-09T00:12:04.804Z,1004.45
2019-03-09T00:13:04.802Z,1004.49
2019-03-09T00:14:04.907Z,1004.45
2019-03-09T00:15:05.019Z,1004.51
2019-03-09T00:16:05.222Z,1004.52
2019-03-09T00:17:05.378Z,1004.51
2019-03-09T00:18:05.462Z,1004.46
2019-03-09T00:19:05.639Z,1004.43
2019-03-09T00:20:05.912Z,1004.44
2019-03-09T00:21:06.129Z,1004.45
2019-03-09T00:22:06.437Z,1004.42
2019-03-09T00:23:06.634Z,1004.36
2019-03-09T00:24:07.050Z,1004.40
2019-03-09T00:26:07.471Z,1004.46
2019-03-09T00:27:07.846Z,1004.52
2019-03-09T00:28:08.078Z,1004.50
2019-03-09T00:29:08.440Z,1004.43
2019-03-09T00:30:08.417Z,1004.33
2019-03-09T00:31:08.765Z,1004.38
2019-03-09T00:32:08.792Z,1004.40
2019-03-09T00:33:09.092Z,1004.42
2019-03-09T00:34:09.206Z,1004.40
2019-03-09T00:35:09.406Z,1004.33
2019-03-09T00:36:09.634Z,1004.38
2019-03-09T00:37:09.831Z,1004.36
2019-03-09T00:38:10.017Z,1004.24
2019-03-09T00:39:10.201Z,1004.38
2019-03-09T00:40:10.400Z,1004.33
2019-03-09T00:41:10.678Z,1004.19
2019-03-09T00:42:10.924Z,1004.38
2019-03-09T00:43:11.098Z,1004.21
2019-03-09T00:44:11.251Z,1004.33
2019-03-09T00:45:11.410Z,1004.24
2019-03-09T00:46:11.516Z,1004.32
2019-03-09T00:47:11.731Z,1004.28
2019-03-09T00:48:11.902Z,1004.29
2019-03-09T00:49:12.028Z,1004.16
2019-03-09T00:50:12.214Z,1004.19
2019-03-09T00:51:12.473Z,1004.19
2019-03-09T00:52:12.663Z,1004.16
2019-03-09T00:53:12.878Z,1004.07
2019-03-09T00:54:15.108Z,1004.09
2019-03-09T00:55:13.256Z,1003.97
2019-03-09T00:56:13.265Z,1004.03
2019-03-09T00:57:13.471Z,1004.01
2019-03-09T00:58:13.646Z,1003.91
2019-03-09T00:59:13.859Z,1003.84
2019-03-09T01:00:13.993Z,1003.80
2019-03-09T01:01:14.082Z,1003.85
2019-03-09T01:02:14.337Z,1003.87
2019-03-09T01:03:14.544Z,1003.80
2019-03-09T01:04:14.772Z,1003.84
2019-03-09T01:05:14.924Z,1003.82
2019-03-09T01:06:15.064Z,1003.76
2019-03-09T01:07:15.277Z,1003.79
2019-03-09T01:08:15.422Z,1003.69
2019-03-09T01:09:15.622Z,1003.75
2019-03-09T01:10:15.960Z,1003.69
2019-03-09T01:11:16.165Z,1003.83
2019-03-09T01:12:16.325Z,1003.70
2019-03-09T01:13:16.482Z,1003.73
2019-03-09T01:14:16.638Z,1003.65
2019-03-09T01:15:16.849Z,1003.65
2019-03-09T01:16:17.006Z,1003.63
2019-03-09T01:17:17.158Z,1003.51
2019-03-09T01:18:17.276Z,1003.52
2019-03-09T01:19:17.385Z,1003.51
2019-03-09T01:20:17.534Z,1003.27
2019-03-09T01:21:17.603Z,1003.40
2019-03-09T01:22:17.661Z,1003.45
2019-03-09T01:23:17.837Z,1003.48
2019-03-09T01:24:17.966Z,1003.36
2019-03-09T01:25:18.048Z,1003.34
2019-03-09T01:26:18.114Z,1003.39
2019-03-09T01:27:18.240Z,1003.27
2019-03-09T01:28:18.371Z,1003.39
2019-03-09T01:29:18.429Z,1003.42
2019-03-09T01:30:18.581Z,1003.21
2019-03-09T01:31:18.688Z,1003.23
2019-03-09T01:32:18.828Z,1003.09
2019-03-09T01:33:18.978Z,1003.26
2019-03-09T01:34:19.055Z,1003.16
2019-03-09T01:35:19.185Z,1003.05
2019-03-09T01:36:19.235Z,1003.01
2019-03-09T01:37:19.357Z,1003.10
2019-03-09T01:38:19.454Z,1002.99
2019-03-09T01:39:19.602Z,1002.83
2019-03-09T01:40:19.700Z,1003.03
2019-03-09T01:41:19.804Z,1002.92
2019-03-09T01:42:19.975Z,1002.85
2019-03-09T01:43:20.082Z,1002.88
2019-03-09T01:44:20.175Z,1002.78
2019-03-09T01:45:20.180Z,1002.62
2019-03-09T01:46:20.267Z,1002.65
2019-03-09T01:47:20.402Z,1002.70
2019-03-09T01:48:20.556Z,1002.67
2019-03-09T01:49:20.783Z,1002.63
2019-03-09T01:50:20.928Z,1002.57
2019-03-09T01:51:21.114Z,1002.54
2019-03-09T01:52:21.343Z,1002.50
2019-03-09T01:53:21.514Z,1002.42
2019-03-09T01:54:21.783Z,1002.35
2019-03-09T01:55:21.938Z,1002.42
2019-03-09T01:56:22.127Z,1002.44
2019-03-09T01:57:22.297Z,1002.36
2019-03-09T01:58:22.579Z,1002.40
2019-03-09T01:59:22.741Z,1002.39
2019-03-09T02:00:22.894Z,1002.34
2019-03-09T02:01:23.072Z,1002.37
2019-03-09T02:02:23.243Z,1002.35
2019-03-09T02:03:23.335Z,1002.34
2019-03-09T02:04:23.546Z,1002.37
2019-03-09T02:05:23.666Z,1002.34
2019-03-09T02:06:23.857Z,1002.36
2019-03-09T02:07:23.972Z,1002.36
2019-03-09T02:08:24.165Z,1002.38
2019-03-09T02:09:24.365Z,1002.35
2019-03-09T02:10:24.461Z,1002.37
2019-03-09T02:11:24.706Z,1002.23
2019-03-09T02:12:24.916Z,1002.29
2019-03-09T02:13:25.088Z,1002.29
2019-03-09T02:14:25.268Z,1002.30
2019-03-09T02:15:25.507Z,1002.20
2019-03-09T02:16:25.738Z,1002.25
2019-03-09T02:17:26.056Z,1002.14
2019-03-09T02:18:26.188Z,1002.12
2019-03-09T02:19:26.303Z,1002.06
2019-03-09T02:20:26.443Z,1002.10
2019-03-09T02:21:26.557Z,1001.98
2019-03-09T02:22:26.702Z,1002.07
2019-03-09T02:23:26.937Z,1002.05
2019-03-09T02:24:27.138Z,1002.03
2019-03-09T02:25:27.320Z,1002.02
2019-03-09T02:26:27.482Z,1001.92
2019-03-09T02:27:27.664Z,1001.99
2019-03-09T02:28:27.826Z,1001.92
2019-03-09T02:29:27.949Z,1001.95
2019-03-09T02:30:28.053Z,1001.97
2019-03-09T02:31:28.294Z,1001.89
2019-03-09T02:32:28.594Z,1001.97
2019-03-09T02:33:28.778Z,1001.94
2019-03-09T02:34:28.954Z,1001.84
2019-03-09T02:35:29.179Z,1001.98
2019-03-09T02:36:29.354Z,1001.86
2019-03-09T02:37:29.549Z,1001.90
2019-03-09T02:38:29.873Z,1001.79
2019-03-09T02:39:30.223Z,1001.89
2019-03-09T02:40:30.172Z,1001.84
2019-03-09T02:41:30.434Z,1001.91
2019-03-09T02:42:30.688Z,1001.83
2019-03-09T02:43:30.811Z,1001.89
2019-03-09T02:44:31.183Z,1001.79
2019-03-09T02:45:31.434Z,1001.78
2019-03-09T02:46:31.560Z,1001.82
2019-03-09T02:47:31.790Z,1001.74
2019-03-09T02:48:31.935Z,1001.61
2019-03-09T02:49:32.107Z,1001.76
2019-03-09T02:50:32.187Z,1001.71
2019-03-09T02:51:32.262Z,1001.72
2019-03-09T02:52:32.361Z,1001.75
2019-03-09T02:53:32.517Z,1001.74
2019-03-09T02:54:32.651Z,1001.73
2019-03-09T02:55:32.687Z,1001.67
2019-03-09T02:56:32.874Z,1001.47
2019-03-09T02:57:33.023Z,1001.64
2019-03-09T02:58:33.087Z,1001.58
2019-03-09T02:59:33.160Z,1001.55
2019-03-09T03:00:33.279Z,1001.55
2019-03-09T03:01:33.326Z,1001.51
2019-03-09T03:02:33.365Z,1001.58
2019-03-09T03:03:33.533Z,1001.35
2019-03-09T03:04:33.597Z,1001.49
2019-03-09T03:05:33.644Z,1001.50
2019-03-09T03:06:33.769Z,1001.51
2019-03-09T03:07:33.875Z,1001.45
2019-03-09T03:08:33.966Z,1001.37
2019-03-09T03:09:34.055Z,1001.48
2019-03-09T03:10:34.105Z,1001.51
2019-03-09T03:11:34.155Z,1001.45
2019-03-09T03:12:34.236Z,1001.35
2019-03-09T03:13:34.437Z,1001.26
2019-03-09T03:14:34.506Z,1001.34
2019-03-09T03:15:34.731Z,1001.23
2019-03-09T03:16:34.705Z,1001.31
2019-03-09T03:17:34.843Z,1001.31
2019-03-09T03:18:34.968Z,1001.43
2019-03-09T03:19:35.064Z,1001.37
2019-03-09T03:20:35.204Z,1001.34
2019-03-09T03:21:35.335Z,1001.35
2019-03-09T03:22:35.528Z,1001.38
2019-03-09T03:23:35.634Z,1001.42
2019-03-09T03:24:35.920Z,1001.28
2019-03-09T03:25:36.060Z,1001.33
2019-03-09T03:26:36.235Z,1001.38
2019-03-09T03:27:36.460Z,1001.43
2019-03-09T03:28:36.627Z,1001.30
2019-03-09T03:29:36.810Z,1001.18
2019-03-09T03:30:37.001Z,1001.27
2019-03-09T03:31:37.217Z,1001.22
2019-03-09T03:32:37.455Z,1001.22
2019-03-09T03:33:37.634Z,1001.20
2019-03-09T03:34:37.802Z,1001.21
2019-03-09T03:35:37.983Z,1001.24
2019-03-09T03:36:38.140Z,1001.24
2019-03-09T03:37:38.347Z,1001.32
2019-03-09T03:38:38.526Z,1001.20
2019-03-09T03:39:38.728Z,1001.18
2019-03-09T03:40:38.860Z,1001.11
2019-03-09T03:41:39.018Z,1001.35
2019-03-09T03:42:39.208Z,1001.19
2019-03-09T03:43:39.361Z,1001.15
2019-03-09T03:44:39.656Z,1001.07
2019-03-09T03:45:39.977Z,1001.25
2019-03-09T03:46:40.246Z,1001.16
2019-03-09T03:47:40.458Z,1001.21
2019-03-09T03:48:40.654Z,1001.08
2019-03-09T03:49:41.002Z,1001.23
2019-03-09T03:50:41.394Z,1001.20
2019-03-09T03:51:41.591Z,1001.09
2019-03-09T03:52:41.742Z,1001.07
2019-03-09T03:53:41.918Z,1001.07
2019-03-09T03:54:42.200Z,1001.22
2019-03-09T03:55:42.488Z,1001.11
2019-03-09T03:56:42.666Z,1001.20
2019-03-09T03:57:42.817Z,1001.24
2019-03-09T03:58:42.965Z,1001.17
2019-03-09T03:59:43.173Z,1001.21
2019-03-09T04:00:43.335Z,1001.21
2019-03-09T04:01:43.593Z,1001.25
2019-03-09T04:02:43.812Z,1001.29
2019-03-09T04:03:44.029Z,1001.26
2019-03-09T04:04:44.296Z,1001.30
2019-03-09T04:05:44.511Z,1001.41
2019-03-09T04:06:44.899Z,1001.25
2019-03-09T04:07:45.176Z,1001.24
2019-03-09T04:08:45.348Z,1001.21
2019-03-09T04:09:45.674Z,1001.19
2019-03-09T04:10:45.965Z,1001.36
2019-03-09T04:11:46.306Z,1001.32
2019-03-09T04:12:46.589Z,1001.35
2019-03-09T04:13:46.860Z,1001.37
2019-03-09T04:14:46.928Z,1001.32
2019-03-09T04:15:47.128Z,1001.33
2019-03-09T04:16:47.443Z,1001.32
2019-03-09T04:17:47.575Z,1001.25
2019-03-09T04:18:47.702Z,1001.37
2019-03-09T04:19:47.833Z,1001.35
2019-03-09T04:20:47.954Z,1001.37
2019-03-09T04:21:48.061Z,1001.28
2019-03-09T04:22:48.151Z,1001.35
2019-03-09T04:23:48.299Z,1001.41
2019-03-09T04:24:48.355Z,1001.26
2019-03-09T04:25:48.499Z,1001.23
2019-03-09T04:26:48.632Z,1001.24
2019-03-09T04:27:48.741Z,1001.18
2019-03-09T04:28:48.793Z,1001.24
2019-03-09T04:29:48.865Z,1001.35
2019-03-09T04:30:49.156Z,1001.37
2019-03-09T04:31:49.220Z,1001.35
2019-03-09T04:32:49.349Z,1001.40
2019-03-09T04:33:50.726Z,1001.21
2019-03-09T04:34:49.465Z,1001.45
2019-03-09T04:35:49.581Z,1001.42
2019-03-09T04:36:49.716Z,1001.20
2019-03-09T04:37:49.781Z,1001.42
2019-03-09T04:38:49.942Z,1001.39
2019-03-09T04:39:50.003Z,1001.54
2019-03-09T04:40:50.169Z,1001.55
2019-03-09T04:41:50.141Z,1001.48
2019-03-09T04:42:50.593Z,1001.52
2019-03-09T04:43:50.735Z,1001.42
2019-03-09T04:44:50.941Z,1001.59
2019-03-09T04:45:51.319Z,1001.70
2019-03-09T04:46:51.428Z,1001.43
2019-03-09T04:47:51.599Z,1001.70
2019-03-09T04:48:51.829Z,1001.58
2019-03-09T04:49:51.995Z,1001.71
2019-03-09T04:50:52.109Z,1001.68
2019-03-09T04:51:52.337Z,1001.82
2019-03-09T04:52:52.566Z,1001.64
2019-03-09T04:53:52.831Z,1001.65
2019-03-09T04:54:53.088Z,1001.69
2019-03-09T04:55:53.233Z,1001.73
2019-03-09T04:56:53.362Z,1001.38
2019-03-09T04:57:53.513Z,1001.70
2019-03-09T04:58:53.667Z,1001.62
2019-03-09T04:59:53.963Z,1001.74
2019-03-09T05:00:54.331Z,1001.74
2019-03-09T05:01:54.430Z,1001.72
2019-03-09T05:02:54.568Z,1001.79
2019-03-09T05:03:54.825Z,1001.50
2019-03-09T05:04:55.003Z,1001.72
2019-03-09T05:05:55.206Z,1001.75
2019-03-09T05:06:55.405Z,1001.73
2019-03-09T05:07:55.593Z,1001.72
2019-03-09T05:08:55.578Z,1001.78
2019-03-09T05:09:55.731Z,1001.83
2019-03-09T05:10:56.183Z,1001.84
2019-03-09T05:11:56.546Z,1001.79
2019-03-09T05:12:57.741Z,1001.82
2019-03-09T05:13:56.798Z,1001.82
2019-03-09T05:14:57.348Z,1001.81
2019-03-09T05:15:57.491Z,1001.62
2019-03-09T05:16:57.562Z,1001.79
2019-03-09T05:17:57.796Z,1001.79
2019-03-09T05:18:58.001Z,1001.79
2019-03-09T05:19:58.103Z,1001.84
2019-03-09T05:20:58.275Z,1001.85
2019-03-09T05:21:58.383Z,1001.86
2019-03-09T05:22:58.578Z,1001.92
2019-03-09T05:23:58.693Z,1001.97
2019-03-09T05:24:58.867Z,1001.93
2019-03-09T05:25:59.029Z,1001.98
2019-03-09T05:26:59.263Z,1001.92
2019-03-09T05:27:59.366Z,1001.93
2019-03-09T05:28:59.551Z,1001.93
2019-03-09T05:29:59.618Z,1001.87
2019-03-09T05:30:59.741Z,1001.97
2019-03-09T05:31:59.946Z,1002.06
2019-03-09T05:33:00.228Z,1001.99
2019-03-09T05:34:00.387Z,1002.10
2019-03-09T05:35:00.574Z,1002.02
2019-03-09T05:36:00.835Z,1002.15
2019-03-09T05:37:01.324Z,1002.15
2019-03-09T05:38:01.627Z,1002.13
2019-03-09T05:39:02.407Z,1002.11
2019-03-09T05:40:01.854Z,1002.17
2019-03-09T05:41:02.061Z,1001.95
2019-03-09T05:42:02.164Z,1002.07
2019-03-09T05:43:02.436Z,1002.21
2019-03-09T05:44:02.615Z,1002.17
2019-03-09T05:45:02.789Z,1002.25
2019-03-09T05:46:03.036Z,1002.30
2019-03-09T05:47:03.196Z,1002.35
2019-03-09T05:48:03.242Z,1002.24
2019-03-09T05:49:03.368Z,1002.26
2019-03-09T05:50:04.706Z,1002.33
2019-03-09T05:51:03.771Z,1002.43
2019-03-09T05:52:03.897Z,1002.53
2019-03-09T05:53:04.354Z,1002.53
2019-03-09T05:54:04.760Z,1002.51
2019-03-09T05:55:04.873Z,1002.48
2019-03-09T05:56:05.299Z,1002.47
2019-03-09T05:57:05.467Z,1002.48
2019-03-09T05:58:05.614Z,1002.52
2019-03-09T05:59:05.860Z,1002.57
2019-03-09T06:00:06.064Z,1002.52
2019-03-09T06:01:06.482Z,1002.50
2019-03-09T06:02:06.616Z,1002.55
2019-03-09T06:03:06.848Z,1002.42
2019-03-09T06:04:07.028Z,1002.48
2019-03-09T06:05:07.304Z,1002.56
2019-03-09T06:06:07.560Z,1002.51
2019-03-09T06:07:07.889Z,1002.54
2019-03-09T06:08:08.025Z,1002.49
2019-03-09T06:09:08.091Z,1002.55
2019-03-09T06:10:08.288Z,1002.55
2019-03-09T06:11:08.527Z,1002.50
2019-03-09T06:12:08.723Z,1002.57
2019-03-09T06:13:08.950Z,1002.56
2019-03-09T06:14:09.057Z,1002.50
2019-03-09T06:15:09.293Z,1002.63
2019-03-09T06:16:09.486Z,1002.67
2019-03-09T06:17:09.620Z,1002.68
2019-03-09T06:18:09.754Z,1002.66
2019-03-09T06:19:09.906Z,1002.74
2019-03-09T06:20:10.367Z,1002.74
2019-03-09T06:21:10.501Z,1002.87
2019-03-09T06:22:10.677Z,1002.80
2019-03-09T06:23:10.923Z,1002.75
2019-03-09T06:24:11.118Z,1002.74
2019-03-09T06:25:11.243Z,1002.75
2019-03-09T06:26:11.451Z,1002.64
2019-03-09T06:27:11.650Z,1002.75
2019-03-09T06:28:11.830Z,1002.81
2019-03-09T06:29:11.976Z,1002.74
2019-03-09T06:30:12.203Z,1002.77
2019-03-09T06:31:12.321Z,1002.74
2019-03-09T06:32:12.500Z,1002.71
2019-03-09T06:33:13.082Z,1002.70
2019-03-09T06:34:13.219Z,1002.70
2019-03-09T06:35:13.549Z,1002.68
2019-03-09T06:36:13.754Z,1002.78
2019-03-09T06:37:13.922Z,1002.74
2019-03-09T06:38:14.449Z,1002.73
2019-03-09T06:39:14.500Z,1002.72
2019-03-09T06:40:14.627Z,1002.76
2019-03-09T06:41:14.794Z,1002.90
2019-03-09T06:42:15.263Z,1002.97
2019-03-09T06:43:15.139Z,1003.06
2019-03-09T06:44:15.328Z,1003.13
2019-03-09T06:45:15.622Z,1003.26
2019-03-09T06:46:15.752Z,1003.06
2019-03-09T06:47:16.095Z,1003.13
2019-03-09T06:48:16.481Z,1003.20
2019-03-09T06:49:16.748Z,1003.13
2019-03-09T06:50:17.018Z,1003.13
2019-03-09T06:51:17.341Z,1003.14
2019-03-09T06:52:17.400Z,1003.13
2019-03-09T06:53:17.593Z,1003.13
2019-03-09T06:54:17.710Z,1003.17
2019-03-09T06:55:18.133Z,1003.16
2019-03-09T06:56:17.909Z,1003.17
2019-03-09T06:57:18.259Z,1003.19
2019-03-09T06:58:18.333Z,1003.18
2019-03-09T06:59:18.526Z,1003.18
2019-03-09T07:00:18.755Z,1003.17
2019-03-09T07:01:18.727Z,1003.19
2019-03-09T07:02:19.102Z,1003.19
2019-03-09T07:03:19.303Z,1003.23
2019-03-09T07:04:19.407Z,1003.19
2019-03-09T07:05:19.510Z,1003.20
2019-03-09T07:06:19.749Z,1003.22
2019-03-09T07:07:19.929Z,1003.22
2019-03-09T07:08:20.251Z,1003.21
2019-03-09T07:09:20.403Z,1003.19
2019-03-09T07:10:20.314Z,1003.31
2019-03-09T07:11:21.011Z,1003.23
2019-03-09T07:12:21.220Z,1003.24
2019-03-09T07:13:21.421Z,1003.18
2019-03-09T07:14:21.566Z,1003.07
2019-03-09T07:15:22.094Z,1003.16
2019-03-09T07:16:22.463Z,1003.14
2019-03-09T07:17:22.702Z,1003.11
2019-03-09T07:18:22.892Z,1003.11
2019-03-09T07:19:22.928Z,1003.07
2019-03-09T07:20:23.109Z,1003.08
2019-03-09T07:21:23.266Z,1003.09
2019-03-09T07:22:23.501Z,1003.11
2019-03-09T07:23:23.704Z,1003.08
2019-03-09T07:24:23.792Z,1003.11
2019-03-09T07:25:24.001Z,1003.09
2019-03-09T07:26:24.098Z,1003.23
2019-03-09T07:27:24.233Z,1003.24
2019-03-09T07:28:24.423Z,1003.23
2019-03-09T07:29:24.836Z,1003.20
2019-03-09T07:30:25.041Z,1003.16
2019-03-09T07:31:25.334Z,1003.07
2019-03-09T07:32:25.547Z,1003.09
2019-03-09T07:33:25.692Z,1003.12
2019-03-09T07:34:25.956Z,1003.11
2019-03-09T07:35:29.146Z,1003.11
2019-03-09T07:36:26.378Z,1003.12
2019-03-09T07:37:26.629Z,1003.17
2019-03-09T07:38:26.776Z,1003.17
2019-03-09T07:39:26.934Z,1003.11
2019-03-09T07:40:27.230Z,1003.13
2019-03-09T07:41:27.648Z,1003.14
2019-03-09T07:42:27.835Z,1003.00
2019-03-09T07:43:28.074Z,1003.04
2019-03-09T07:44:28.226Z,1003.09
2019-03-09T07:45:28.364Z,1003.11
2019-03-09T07:46:28.637Z,1003.21
2019-03-09T07:47:28.899Z,1003.41
2019-03-09T07:48:29.029Z,1003.40
2019-03-09T07:49:29.196Z,1003.34
2019-03-09T07:50:29.457Z,1003.33
2019-03-09T07:51:29.601Z,1003.34
2019-03-09T07:52:29.838Z,1003.34
2019-03-09T07:53:29.903Z,1003.40
2019-03-09T07:54:30.220Z,1003.26
2019-03-09T07:55:30.467Z,1003.33
2019-03-09T07:56:30.653Z,1003.31
2019-03-09T07:57:30.976Z,1003.26
2019-03-09T07:58:31.260Z,1003.28
2019-03-09T07:59:31.413Z,1003.30
2019-03-09T08:00:31.734Z,1003.37
2019-03-09T08:01:31.862Z,1003.36
2019-03-09T08:02:31.981Z,1003.39
2019-03-09T08:03:32.115Z,1003.53
2019-03-09T08:04:32.244Z,1003.55
2019-03-09T08:05:32.422Z,1003.55
2019-03-09T08:06:32.550Z,1003.57
2019-03-09T08:07:32.675Z,1003.58
2019-03-09T08:08:32.792Z,1003.61
2019-03-09T08:09:32.938Z,1003.59
2019-03-09T08:10:33.051Z,1003.63
2019-03-09T08:11:33.375Z,1003.65
2019-03-09T08:12:33.522Z,1003.65
2019-03-09T08:13:33.552Z,1003.62
2019-03-09T08:14:33.642Z,1003.62
2019-03-09T08:15:33.796Z,1003.65
2019-03-09T08:16:35.928Z,1003.66
2019-03-09T08:17:33.955Z,1003.65
2019-03-09T08:18:34.036Z,1003.68
2019-03-09T08:19:34.142Z,1003.69
2019-03-09T08:20:34.268Z,1003.69
2019-03-09T08:21:34.489Z,1003.76
2019-03-09T08:22:34.573Z,1003.75
2019-03-09T08:23:34.722Z,1003.73
2019-03-09T08:24:34.789Z,1003.71
2019-03-09T08:25:34.884Z,1003.69
2019-03-09T08:26:34.916Z,1003.69
2019-03-09T08:27:34.889Z,1003.69
2019-03-09T08:28:35.526Z,1003.70
2019-03-09T08:29:35.725Z,1003.73
2019-03-09T08:30:35.831Z,1003.74
2019-03-09T08:31:36.025Z,1003.75
2019-03-09T08:32:36.079Z,1003.75
2019-03-09T08:33:36.229Z,1003.75
2019-03-09T08:34:36.473Z,1003.74
2019-03-09T08:35:36.617Z,1003.74
2019-03-09T08:36:36.713Z,1003.74
2019-03-09T08:37:36.840Z,1003.76
2019-03-09T08:38:37.072Z,1003.77
2019-03-09T08:39:37.156Z,1003.87
2019-03-09T08:40:37.354Z,1003.88
2019-03-09T08:41:37.623Z,1003.89
2019-03-09T08:42:37.784Z,1003.92
2019-03-09T08:43:38.026Z,1004.02
2019-03-09T08:44:38.237Z,1004.00
2019-03-09T08:45:38.415Z,1003.96
2019-03-09T08:46:38.566Z,1004.14
2019-03-09T08:47:38.751Z,1004.12
2019-03-09T08:48:38.888Z,1004.10
2019-03-09T08:49:38.977Z,1004.14
2019-03-09T08:50:39.230Z,1004.15
2019-03-09T08:51:39.383Z,1004.16
2019-03-09T08:52:39.531Z,1004.17
2019-03-09T08:53:39.691Z,1004.19
2019-03-09T08:54:39.828Z,1004.23
2019-03-09T08:55:39.965Z,1004.14
2019-03-09T08:56:40.089Z,1004.25
2019-03-09T08:57:40.221Z,1004.27
2019-03-09T08:58:40.367Z,1004.32
2019-03-09T08:59:40.499Z,1004.31
2019-03-09T09:00:40.675Z,1004.30
2019-03-09T09:01:40.879Z,1004.29
2019-03-09T09:02:41.041Z,1004.28
2019-03-09T09:03:41.194Z,1004.28
2019-03-09T09:04:41.331Z,1004.28
2019-03-09T09:05:41.522Z,1004.34
2019-03-09T09:06:41.623Z,1004.36
2019-03-09T09:07:41.813Z,1004.42
2019-03-09T09:08:42.033Z,1004.28
2019-03-09T09:09:42.172Z,1004.30
2019-03-09T09:10:42.284Z,1004.17
2019-03-09T09:11:42.605Z,1004.39
2019-03-09T09:12:42.726Z,1004.29
2019-03-09T09:13:42.858Z,1004.31
2019-03-09T09:14:43.014Z,1004.31
2019-03-09T09:15:43.186Z,1004.32
2019-03-09T09:16:43.341Z,1004.31
2019-03-09T09:17:43.433Z,1004.31
2019-03-09T09:18:43.662Z,1004.35
2019-03-09T09:19:43.903Z,1004.29
2019-03-09T09:20:44.108Z,1004.35
2019-03-09T09:21:44.268Z,1004.41
2019-03-09T09:22:44.469Z,1004.40
2019-03-09T09:23:44.629Z,1004.38
2019-03-09T09:24:47.966Z,1004.35
2019-03-09T09:25:45.465Z,1004.34
2019-03-09T09:26:45.776Z,1004.38
2019-03-09T09:27:45.910Z,1004.39
2019-03-09T09:28:46.120Z,1004.41
2019-03-09T09:29:46.416Z,1004.34
2019-03-09T09:30:46.608Z,1004.42
2019-03-09T09:31:47.034Z,1004.40
2019-03-09T09:32:47.157Z,1004.40
2019-03-09T09:33:47.306Z,1004.39
2019-03-09T09:34:47.509Z,1004.41
2019-03-09T09:35:47.559Z,1004.43
2019-03-09T09:36:47.696Z,1004.35
2019-03-09T09:37:47.943Z,1004.35
2019-03-09T09:38:48.008Z,1004.40
2019-03-09T09:39:48.164Z,1004.41
2019-03-09T09:40:48.260Z,1004.40
2019-03-09T09:41:48.448Z,1004.38
2019-03-09T09:42:48.529Z,1004.38
2019-03-09T09:43:48.577Z,1004.37
2019-03-09T09:44:48.629Z,1004.31
2019-03-09T09:45:48.634Z,1004.29
2019-03-09T09:46:49.228Z,1004.28
2019-03-09T09:47:49.264Z,1004.27
2019-03-09T09:48:49.417Z,1004.29
2019-03-09T09:49:49.550Z,1004.31
2019-03-09T09:50:49.590Z,1004.29
2019-03-09T09:51:49.607Z,1004.31
2019-03-09T09:52:49.722Z,1004.30
2019-03-09T09:53:49.774Z,1004.32
2019-03-09T09:54:49.944Z,1004.30
2019-03-09T09:55:50.025Z,1004.30
2019-03-09T09:56:50.180Z,1004.23
2019-03-09T09:57:50.479Z,1004.23
2019-03-09T09:58:50.654Z,1004.24
2019-03-09T09:59:50.769Z,1004.24
2019-03-09T10:00:50.975Z,1004.23
2019-03-09T10:01:51.191Z,1004.14
2019-03-09T10:02:51.384Z,1004.16
2019-03-09T10:03:51.716Z,1004.09
2019-03-09T10:04:51.870Z,1004.27
2019-03-09T10:05:51.999Z,1004.13
2019-03-09T10:06:52.143Z,1004.02
2019-03-09T10:07:52.361Z,1004.03
2019-03-09T10:08:52.597Z,1004.05
2019-03-09T10:09:52.771Z,1004.07
2019-03-09T10:10:53.093Z,1004.21
2019-03-09T10:11:53.294Z,1004.20
2019-03-09T10:12:55.780Z,1004.19
2019-03-09T10:13:53.859Z,1004.18
2019-03-09T10:14:54.018Z,1004.17
2019-03-09T10:15:54.243Z,1004.16
2019-03-09T10:16:54.418Z,1004.15
2019-03-09T10:17:54.644Z,1004.12
2019-03-09T10:18:54.832Z,1004.13
2019-03-09T10:19:54.966Z,1004.01
2019-03-09T10:20:55.194Z,1004.09
2019-03-09T10:21:55.427Z,1004.08
2019-03-09T10:23:03.782Z,1004.14
2019-03-09T10:23:55.784Z,1004.12
2019-03-09T10:24:55.992Z,1004.13
2019-03-09T10:25:56.153Z,1004.14
2019-03-09T10:26:56.256Z,1004.16
2019-03-09T10:28:56.390Z,1004.14
2019-03-09T10:29:56.579Z,1004.22
2019-03-09T10:30:56.769Z,1004.23
2019-03-09T10:31:56.939Z,1004.19
2019-03-09T10:32:57.096Z,1004.32
2019-03-09T10:33:57.277Z,1004.27
2019-03-09T10:34:57.535Z,1004.27
2019-03-09T10:35:57.669Z,1004.29
2019-03-09T10:36:58.004Z,1004.35
2019-03-09T10:37:58.113Z,1004.12
2019-03-09T10:38:58.201Z,1004.13
2019-03-09T10:39:58.349Z,1004.20
2019-03-09T10:40:58.467Z,1004.19
2019-03-09T10:41:58.618Z,1004.20
2019-03-09T10:42:58.680Z,1004.20
2019-03-09T10:43:58.900Z,1004.22
2019-03-09T10:44:59.006Z,1004.21
2019-03-09T10:45:59.224Z,1004.19
2019-03-09T10:46:59.343Z,1004.15
2019-03-09T10:47:59.477Z,1004.15
2019-03-09T10:48:59.574Z,1004.25
2019-03-09T10:49:59.696Z,1004.18
2019-03-09T10:50:59.884Z,1004.28
2019-03-09T10:52:00.066Z,1004.26
2019-03-09T10:53:00.283Z,1004.19
2019-03-09T10:54:00.443Z,1004.28
2019-03-09T10:55:00.703Z,1004.31
2019-03-09T10:56:00.734Z,1004.30
2019-03-09T10:57:01.104Z,1004.29
2019-03-09T10:58:01.429Z,1004.29
2019-03-09T10:59:01.836Z,1004.29
2019-03-09T11:00:02.112Z,1004.28
2019-03-09T11:01:02.446Z,1004.28
2019-03-09T11:02:02.531Z,1004.25
2019-03-09T11:03:02.677Z,1004.22
2019-03-09T11:04:02.835Z,1004.17
2019-03-09T11:05:02.966Z,1004.10
2019-03-09T11:06:03.267Z,1004.12
2019-03-09T11:07:03.408Z,1004.03
2019-03-09T11:08:03.542Z,1003.89
2019-03-09T11:09:03.678Z,1003.92
2019-03-09T11:10:03.918Z,1003.92
2019-03-09T11:11:04.079Z,1003.94
2019-03-09T11:12:04.184Z,1003.95
2019-03-09T11:13:04.266Z,1003.92
2019-03-09T11:14:04.345Z,1003.90
2019-03-09T11:15:04.507Z,1003.88
2019-03-09T11:16:04.602Z,1003.88
2019-03-09T11:17:04.749Z,1003.76
2019-03-09T11:18:04.773Z,1003.75
2019-03-09T11:19:04.894Z,1003.76
2019-03-09T11:20:05.033Z,1003.76
2019-03-09T11:21:05.269Z,1003.74
2019-03-09T11:22:05.324Z,1003.74
2019-03-09T11:23:05.440Z,1003.83
2019-03-09T11:24:05.586Z,1003.59
2019-03-09T11:25:05.698Z,1003.48
2019-03-09T11:26:05.925Z,1003.37
2019-03-09T11:27:06.113Z,1003.41
2019-03-09T11:28:06.293Z,1003.43
2019-03-09T11:29:06.486Z,1003.47
2019-03-09T11:30:06.575Z,1003.49
2019-03-09T11:31:06.890Z,1003.50
2019-03-09T11:32:07.009Z,1003.49
2019-03-09T11:33:07.288Z,1003.37
2019-03-09T11:34:07.599Z,1003.33
2019-03-09T11:35:07.767Z,1003.31
2019-03-09T11:36:07.958Z,1003.31
2019-03-09T11:37:08.103Z,1003.32
2019-03-09T11:38:08.292Z,1003.33
2019-03-09T11:39:08.497Z,1003.30
2019-03-09T11:40:08.685Z,1003.33
2019-03-09T11:41:18.538Z,1003.28
2019-03-09T11:42:09.052Z,1003.43
2019-03-09T11:43:09.225Z,1003.57
2019-03-09T11:44:09.420Z,1003.79
2019-03-09T11:45:09.617Z,1003.85
2019-03-09T11:46:10.001Z,1003.79
2019-03-09T11:47:10.301Z,1004.07
2019-03-09T11:48:10.414Z,1004.08
2019-03-09T11:49:10.502Z,1004.23
2019-03-09T11:50:10.738Z,1004.31
2019-03-09T11:51:10.693Z,1004.33
2019-03-09T11:52:19.681Z,1004.20
2019-03-09T11:53:10.987Z,1004.18
2019-03-09T11:54:11.191Z,1004.22
2019-03-09T11:55:11.286Z,1004.11
2019-03-09T11:56:11.549Z,1004.12
2019-03-09T11:57:11.671Z,1004.07
2019-03-09T11:58:11.861Z,1004.10
2019-03-09T11:59:12.034Z,1004.12
2019-03-09T12:00:12.237Z,1003.99
2019-03-09T12:01:12.603Z,1004.04
2019-03-09T12:02:12.780Z,1004.02
2019-03-09T12:03:12.945Z,1004.00
2019-03-09T12:04:13.158Z,1003.74
2019-03-09T12:05:13.314Z,1003.76
2019-03-09T12:06:13.549Z,1003.89
2019-03-09T12:07:13.722Z,1003.73
2019-03-09T12:08:13.908Z,1003.80
2019-03-09T12:09:14.055Z,1003.78